Meteo Giornale » Osservazioni meteo Stati Uniti (USA) » Fort Carson
ore: 19:55 - Osservazioni Meteo Fort Carson
Lat. 38° 42' N Lon. 104° 46' W Alt. 1789 metri s.l.m.
22 °C
Coperto
Temp. 24 Ore
14 °C
29 °C
Sud
20.3 Km/h
Dew point 12 °C
Umidità 53 %
Visibilità 10 Km
Il sole sorge alle ore 06:27
Il sole tramonta alle ore 19:30
| Data e Ora | Cielo e Fenomeni | T °C | DP °C | Um. % | Pres. hPa | Vis. km | Vento km/h | |
|---|---|---|---|---|---|---|---|---|
| Oggi h: 19:55 | Coperto | 22 | 12 | 53 | 1022 | 10 | S 20.3 | |
| Oggi h: 18:55 | Sereno | 24 | 9 | 38 | 1020 | 10 | S 9.3 | |
| Oggi h: 18:52 | Sereno | 24 | 9 | 38 | 1020 | 10 | S 9.3 | |
| Oggi h: 18:47 | Pioggia | 25 | 9 | 36 | 1020 | 10 | S 11.1 | |
| Oggi h: 17:55 | Sereno | 27 | 8 | 30 | 1020 | 10 | S/SE 14.8 | |
| Oggi h: 16:55 | Nuvoloso | 27 | 6 | 26 | 1021 | 10 | S 20.3 | |
| Oggi h: 15:55 | Sereno | 29 | 6 | 23 | 1021 | 10 | SO 13 | |
| Oggi h: 14:55 | Sereno | 28 | 5 | 23 | 1021 | 10 | S 14.8 | |
| Oggi h: 13:55 | Poco Nuvoloso | 28 | 5 | 23 | 1022 | 10 | O/NO 11.1 | |
| Oggi h: 12:55 | Nuvoloso | 28 | 6 | 24 | 1023 | 10 | NO 9.3 | |
| Oggi h: 11:55 | Coperto | 26 | 7 | 29 | 1023 | 10 | N 0 | |
| Oggi h: 10:55 | Coperto | 25 | 11 | 41 | 1024 | 10 | N/NO 11.1 | |
| Oggi h: 09:55 | Coperto | 20 | 10 | 52 | 1023 | 10 | N 13 | |
| Oggi h: 08:55 | Coperto | 18 | 10 | 59 | 1024 | 10 | N 14.8 | |
| Oggi h: 07:55 | Poco Nuvoloso | 15 | 10 | 72 | 1023 | 10 | N 14.8 | |
| Oggi h: 06:55 | Sereno | 14 | 10 | 76 | 1023 | 10 | N/NO 11.1 | |
| Oggi h: 05:55 | Nuvoloso | 14 | 10 | 76 | 1022 | 10 | N/NO 11.1 | |
| Oggi h: 04:55 | Sereno | 15 | 10 | 72 | 1022 | 10 | E 13 | |
| Oggi h: 03:55 | Coperto | 17 | 10 | 63 | 1022 | 10 | N/NO 13 | |
| Oggi h: 02:55 | Molto Nuvoloso | 18 | 11 | 63 | 1021 | 10 | N 13 | |
| Oggi h: 01:55 | Coperto | 19 | 9 | 52 | 1021 | 10 | S/SO 11.1 | |
| Oggi h: 00:55 | Coperto | 21 | 9 | 46 | 1022 | 10 | SO 14.8 | |
| Ieri h: 23:55 | Coperto | 19 | 10 | 55 | 1023 | 10 | N 5.5 | |
| Ieri h: 22:55 | Nuvoloso | 21 | 8 | 43 | 1024 | 10 | O/SO 13 | |
| Ieri h: 22:19 | Nuvoloso | 20 | 12 | 59 | 1023 | 10 | N 5.5 | |
| Ieri h: 22:10 | Pioggia | 20 | 11 | 56 | 1023 | 10 | S/SE 11.1 | |
| Ieri h: 21:55 | Coperto | 21 | 10 | 49 | 1023 | 10 | O/SO 13 | |
| Ieri h: 20:55 | Coperto | 23 | 11 | 46 | 1021 | 10 | N/NE 13 | |



